Time;durP1;ratioP1;P1;durP2;ratioP2;P2;SDS_P1;SDS_P2;PMS_P1;PMS_P2;Temp;Humidity;BMP_temperature;BMP_pressure;BME280_temperature;BME280_humidity;BME280_pressure;Samples;Min_cycle;Max_cycle;Signal;HPM_P1;HPM_P2
2024/03/25 00:00:15;;;;;;;15.27;6.87;;;5.00;99.90;;;;;;7302576;19;20193;-81
2024/03/25 00:02:41;;;;;;;12.57;6.50;;;5.00;99.90;;;;;;7279912;19;20188;-81
2024/03/25 00:05:11;;;;;;;14.63;6.93;;;5.00;99.90;;;;;;7284316;19;20199;-82
2024/03/25 00:07:38;;;;;;;14.60;6.53;;;4.80;99.90;;;;;;7284016;19;20196;-81
2024/03/25 00:10:06;;;;;;;14.40;6.77;;;4.80;99.90;;;;;;7283504;19;20200;-81
2024/03/25 00:12:32;;;;;;;14.47;7.17;;;4.80;99.90;;;;;;7283325;19;20192;-81
2024/03/25 00:14:58;;;;;;;15.53;7.10;;;4.70;99.90;;;;;;7282760;19;20193;-81
2024/03/25 00:17:23;;;;;;;18.47;7.27;;;4.70;99.90;;;;;;7283921;19;20228;-81
2024/03/25 00:19:52;;;;;;;15.93;7.27;;;4.70;99.90;;;;;;7280495;19;20208;-81
2024/03/25 00:22:19;;;;;;;16.07;7.70;;;4.70;99.90;;;;;;7281739;19;20206;-80
2024/03/25 00:24:46;;;;;;;17.00;7.40;;;4.50;99.90;;;;;;7304678;19;20181;-81
2024/03/25 00:27:12;;;;;;;14.13;6.97;;;4.60;99.90;;;;;;7281965;19;20184;-80
2024/03/25 00:29:38;;;;;;;15.33;7.10;;;4.60;99.90;;;;;;7280604;19;20201;-80
2024/03/25 00:32:04;;;;;;;14.57;6.73;;;4.60;99.90;;;;;;7281699;19;20189;-79
2024/03/25 00:34:30;;;;;;;14.13;6.40;;;4.60;99.90;;;;;;7280626;19;20193;-79
2024/03/25 00:36:56;;;;;;;14.67;7.60;;;4.60;99.90;;;;;;7281672;19;20640;-82
2024/03/25 00:39:22;;;;;;;14.83;7.27;;;4.60;99.90;;;;;;7280879;19;20184;-80
2024/03/25 00:41:48;;;;;;;16.63;7.77;;;4.60;99.90;;;;;;7282694;19;20724;-80
2024/03/25 00:44:14;;;;;;;16.10;6.97;;;4.50;99.90;;;;;;7312225;19;20199;-79
2024/03/25 00:46:41;;;;;;;14.37;6.70;;;4.50;99.90;;;;;;7292297;19;20263;-80
2024/03/25 00:49:08;;;;;;;14.47;7.00;;;4.50;99.90;;;;;;7290094;19;20188;-79
2024/03/25 00:51:34;;;;;;;17.43;7.70;;;4.40;99.90;;;;;;7290100;19;20514;-80
2024/03/25 00:54:00;;;;;;;16.53;7.73;;;4.40;99.90;;;;;;7288789;19;20221;-79
2024/03/25 00:56:26;;;;;;;14.50;7.87;;;4.40;99.90;;;;;;7285923;19;20189;-80
2024/03/25 00:58:51;;;;;;;17.60;8.10;;;4.40;99.90;;;;;;7284465;19;20219;-79
2024/03/25 01:01:17;;;;;;;18.17;8.20;;;4.40;99.90;;;;;;7290039;19;20189;-80
2024/03/25 01:03:43;;;;;;;16.77;7.53;;;4.30;99.90;;;;;;7309767;19;20259;-80
2024/03/25 01:06:09;;;;;;;16.47;8.20;;;4.20;99.90;;;;;;7286529;19;20189;-80
2024/03/25 01:08:34;;;;;;;13.43;7.23;;;4.20;99.90;;;;;;7288587;19;20216;-80
2024/03/25 01:11:00;;;;;;;18.53;7.93;;;4.30;99.90;;;;;;7294996;19;20203;-80
2024/03/25 01:13:26;;;;;;;17.40;7.47;;;4.50;99.90;;;;;;7295101;19;20200;-80
2024/03/25 01:15:52;;;;;;;16.87;7.93;;;4.60;99.90;;;;;;7293416;19;20185;-79
2024/03/25 01:18:18;;;;;;;15.40;8.30;;;4.70;99.90;;;;;;7291469;19;20197;-80
2024/03/25 01:20:44;;;;;;;16.63;8.03;;;4.90;99.90;;;;;;7310645;19;20268;-80
2024/03/25 01:23:10;;;;;;;15.53;7.57;;;5.00;99.90;;;;;;7288356;19;20217;-81
2024/03/25 01:25:36;;;;;;;15.63;8.07;;;4.80;99.90;;;;;;7286744;19;20198;-80
2024/03/25 01:28:02;;;;;;;16.67;7.80;;;4.80;99.90;;;;;;7287111;19;20199;-80
2024/03/25 01:30:29;;;;;;;17.83;8.13;;;4.70;99.90;;;;;;7287181;19;20201;-80
2024/03/25 01:32:55;;;;;;;17.17;7.80;;;4.40;99.90;;;;;;7286889;19;20897;-80
2024/03/25 01:35:21;;;;;;;18.43;7.50;;;4.30;99.90;;;;;;7284299;19;20197;-80
2024/03/25 01:37:47;;;;;;;14.50;7.70;;;4.10;99.90;;;;;;7291912;19;20182;-79
2024/03/25 01:40:14;;;;;;;15.77;7.90;;;4.00;99.90;;;;;;7307647;19;20188;-80
2024/03/25 01:42:41;;;;;;;16.67;7.40;;;4.00;99.90;;;;;;7285608;19;20191;-79
2024/03/25 01:45:10;;;;;;;17.23;7.73;;;3.90;99.90;;;;;;7284891;19;20230;-79
2024/03/25 01:47:38;;;;;;;17.17;8.07;;;3.90;99.90;;;;;;7287275;19;20182;-81
2024/03/25 01:50:04;;;;;;;21.50;7.73;;;4.00;99.90;;;;;;7284265;19;20192;-80
2024/03/25 01:52:30;;;;;;;14.10;7.60;;;4.00;99.90;;;;;;7284721;19;20192;-80
2024/03/25 01:54:56;;;;;;;17.60;8.23;;;4.00;99.90;;;;;;7284925;19;20777;-79
2024/03/25 01:57:22;;;;;;;21.57;8.73;;;4.00;99.90;;;;;;7285714;19;20212;-79
2024/03/25 01:59:48;;;;;;;17.30;8.10;;;4.00;99.90;;;;;;7286001;19;20189;-79
2024/03/25 02:02:14;;;;;;;20.50;8.87;;;4.00;99.90;;;;;;7306280;19;20227;-80
2024/03/25 02:04:41;;;;;;;21.07;9.17;;;4.00;99.90;;;;;;7285897;19;20695;-79
2024/03/25 02:07:08;;;;;;;17.50;8.03;;;4.00;99.90;;;;;;7286656;19;20186;-79
2024/03/25 02:09:35;;;;;;;20.87;7.77;;;4.00;99.90;;;;;;7288656;19;20196;-79
2024/03/25 02:12:02;;;;;;;19.87;7.87;;;4.00;99.90;;;;;;7285219;19;20199;-80
2024/03/25 02:14:28;;;;;;;22.33;8.77;;;4.00;99.90;;;;;;7285018;19;20189;-79
2024/03/25 02:16:54;;;;;;;20.67;8.30;;;4.00;99.90;;;;;;7285918;19;20204;-80
2024/03/25 02:19:23;;;;;;;21.57;8.83;;;4.10;99.90;;;;;;7287009;19;20188;-80
2024/03/25 02:21:49;;;;;;;21.10;8.30;;;4.20;99.90;;;;;;7284415;19;20195;-79
2024/03/25 02:24:18;;;;;;;20.77;8.67;;;4.40;99.90;;;;;;7307330;19;20613;-80
2024/03/25 02:26:43;;;;;;;19.83;8.17;;;4.50;99.90;;;;;;7285946;19;20192;-80
2024/03/25 02:29:09;;;;;;;21.53;8.57;;;4.60;99.90;;;;;;7283133;19;20193;-80
2024/03/25 02:31:35;;;;;;;19.63;8.67;;;4.70;99.90;;;;;;7283483;19;20203;-81
2024/03/25 02:34:01;;;;;;;21.40;8.40;;;4.90;99.90;;;;;;7284192;19;20193;-80
2024/03/25 02:36:27;;;;;;;16.57;7.77;;;5.10;99.90;;;;;;7283222;19;20189;-80
2024/03/25 02:38:53;;;;;;;15.77;8.03;;;5.20;99.90;;;;;;7283698;19;20196;-80
2024/03/25 02:41:19;;;;;;;19.70;8.20;;;5.40;99.90;;;;;;7282115;19;20205;-80
2024/03/25 02:43:45;;;;;;;26.47;9.20;;;5.30;99.90;;;;;;7306214;19;20199;-80
2024/03/25 02:46:11;;;;;;;22.03;8.90;;;5.20;99.90;;;;;;7287372;19;20183;-81
2024/03/25 02:48:37;;;;;;;26.13;9.27;;;5.10;99.90;;;;;;7282969;19;20694;-80
2024/03/25 02:51:03;;;;;;;30.73;8.73;;;5.20;99.90;;;;;;7284522;19;20185;-80
2024/03/25 02:53:28;;;;;;;25.17;9.67;;;5.20;99.90;;;;;;7284093;19;20219;-80
2024/03/25 02:55:54;;;;;;;23.77;9.20;;;5.20;99.90;;;;;;7284300;19;20272;-80
2024/03/25 02:58:20;;;;;;;22.07;9.70;;;5.20;99.90;;;;;;7283258;19;20198;-80
2024/03/25 03:00:46;;;;;;;23.57;9.93;;;5.20;99.90;;;;;;7305219;19;20659;-78
2024/03/25 03:03:11;;;;;;;25.13;9.40;;;5.20;99.90;;;;;;7284352;19;20256;-80
2024/03/25 03:05:37;;;;;;;25.20;9.97;;;5.20;99.90;;;;;;7283179;19;20211;-80
2024/03/25 03:08:03;;;;;;;23.57;10.17;;;5.20;99.90;;;;;;7283343;19;20181;-80
2024/03/25 03:10:29;;;;;;;26.20;10.40;;;5.30;99.90;;;;;;7282408;19;20189;-80
2024/03/25 03:12:55;;;;;;;30.67;9.73;;;5.40;99.90;;;;;;7284904;19;20185;-80
2024/03/25 03:15:20;;;;;;;25.80;10.63;;;5.60;99.90;;;;;;7282130;19;20685;-80
2024/03/25 03:17:46;;;;;;;27.43;9.83;;;5.80;99.90;;;;;;7300478;19;20205;-78
2024/03/25 03:20:12;;;;;;;29.13;10.03;;;5.80;99.90;;;;;;7294356;19;20549;-80
2024/03/25 03:22:37;;;;;;;29.70;11.00;;;5.80;99.90;;;;;;7283097;19;20966;-80
2024/03/25 03:25:03;;;;;;;28.73;10.47;;;5.90;99.90;;;;;;7281548;19;20191;-81
2024/03/25 03:27:30;;;;;;;27.27;10.97;;;6.10;99.90;;;;;;7281832;19;20192;-81
2024/03/25 03:29:56;;;;;;;27.67;11.00;;;6.10;99.90;;;;;;7282037;19;20641;-81
2024/03/25 03:32:22;;;;;;;25.57;10.20;;;6.20;99.90;;;;;;7281736;19;20188;-81
2024/03/25 03:34:47;;;;;;;29.47;10.53;;;6.10;99.90;;;;;;7284732;19;20540;-81
2024/03/25 03:37:13;;;;;;;29.47;10.83;;;6.10;99.90;;;;;;7302716;19;20577;-80
2024/03/25 03:39:39;;;;;;;26.97;10.47;;;6.10;99.90;;;;;;7282299;19;20189;-80
2024/03/25 03:42:04;;;;;;;26.40;10.57;;;6.00;99.90;;;;;;7283499;19;20195;-80
2024/03/25 03:44:30;;;;;;;31.37;11.33;;;6.10;99.90;;;;;;7282419;19;20191;-80
2024/03/25 03:46:56;;;;;;;30.57;11.00;;;6.10;99.90;;;;;;7282040;19;20288;-80
2024/03/25 03:49:22;;;;;;;27.07;11.00;;;6.10;99.90;;;;;;7283460;19;20186;-80
2024/03/25 03:51:48;;;;;;;29.67;10.77;;;6.00;99.90;;;;;;7283881;19;20190;-80
2024/03/25 03:54:13;;;;;;;30.67;11.57;;;5.90;99.90;;;;;;7303536;19;20191;-80
2024/03/25 03:56:39;;;;;;;34.43;11.90;;;6.00;99.90;;;;;;7280294;19;20183;-80
2024/03/25 03:59:05;;;;;;;34.17;12.13;;;6.00;99.90;;;;;;7282085;19;20191;-80
2024/03/25 04:01:31;;;;;;;27.87;11.27;;;6.00;99.90;;;;;;7282780;19;20194;-81
2024/03/25 04:03:56;;;;;;;32.53;11.87;;;6.10;99.90;;;;;;7280072;19;20718;-80
2024/03/25 04:06:22;;;;;;;36.13;12.57;;;6.10;99.90;;;;;;7282554;19;20272;-80
2024/03/25 04:08:48;;;;;;;27.70;11.73;;;6.10;99.90;;;;;;7282066;19;20206;-79
2024/03/25 04:11:14;;;;;;;35.43;12.40;;;6.00;99.90;;;;;;7305110;19;20195;-80
2024/03/25 04:13:40;;;;;;;34.30;13.37;;;5.90;99.90;;;;;;7279938;19;20205;-79
2024/03/25 04:16:06;;;;;;;37.00;13.50;;;5.70;99.90;;;;;;7282163;19;20573;-79
2024/03/25 04:18:33;;;;;;;39.80;13.47;;;5.80;99.90;;;;;;7287500;19;20193;-80
2024/03/25 04:20:59;;;;;;;32.53;12.77;;;5.90;99.90;;;;;;7287637;19;20264;-79
2024/03/25 04:23:26;;;;;;;34.83;13.67;;;6.00;99.90;;;;;;7287183;19;20210;-80
2024/03/25 04:25:52;;;;;;;38.83;13.83;;;5.90;99.90;;;;;;7286707;19;20674;-79
2024/03/25 04:28:17;;;;;;;34.80;13.73;;;5.70;99.90;;;;;;7294040;19;20259;-80
2024/03/25 04:30:43;;;;;;;34.23;12.70;;;5.70;99.90;;;;;;7308636;19;20253;-80
2024/03/25 04:33:09;;;;;;;35.53;13.00;;;5.50;99.90;;;;;;7286296;19;20313;-79
2024/03/25 04:35:35;;;;;;;35.47;12.70;;;5.40;99.90;;;;;;7294225;19;20193;-79
2024/03/25 04:38:01;;;;;;;27.10;12.40;;;5.30;99.90;;;;;;7296224;19;20197;-80
2024/03/25 04:40:26;;;;;;;34.00;13.03;;;5.20;99.90;;;;;;7296809;19;20215;-79
2024/03/25 04:42:52;;;;;;;34.97;13.50;;;5.30;99.90;;;;;;7289830;19;20257;-79
2024/03/25 04:45:18;;;;;;;36.43;13.17;;;5.40;99.90;;;;;;7291039;19;20183;-80
2024/03/25 04:47:44;;;;;;;32.20;13.20;;;5.40;99.90;;;;;;7312050;19;20188;-81
2024/03/25 04:50:10;;;;;;;34.37;14.07;;;5.30;99.90;;;;;;7286783;19;20188;-80
2024/03/25 04:52:36;;;;;;;37.53;13.80;;;5.30;99.90;;;;;;7287505;19;20273;-81
2024/03/25 04:55:02;;;;;;;40.60;14.50;;;5.20;99.90;;;;;;7287693;19;20190;-81
2024/03/25 04:57:27;;;;;;;32.23;13.80;;;5.10;99.90;;;;;;7288714;19;20549;-81
2024/03/25 04:59:54;;;;;;;40.50;14.93;;;5.10;99.90;;;;;;7286523;19;20193;-80
2024/03/25 05:02:19;;;;;;;37.80;13.90;;;5.10;99.90;;;;;;7288179;19;20195;-81
2024/03/25 05:04:45;;;;;;;42.87;15.20;;;5.00;99.90;;;;;;7310428;19;20192;-81
2024/03/25 05:07:11;;;;;;;37.03;13.80;;;5.00;99.90;;;;;;7288495;19;20217;-81
2024/03/25 05:09:37;;;;;;;35.90;13.87;;;4.90;99.90;;;;;;7288139;19;20178;-80
2024/03/25 05:12:03;;;;;;;45.07;14.67;;;4.90;99.90;;;;;;7286577;19;20248;-81
2024/03/25 05:14:28;;;;;;;43.17;14.97;;;4.80;99.90;;;;;;7286256;19;20197;-80
2024/03/25 05:16:54;;;;;;;42.03;14.07;;;4.80;99.90;;;;;;7286468;19;20199;-81
2024/03/25 05:19:20;;;;;;;41.30;14.50;;;4.80;99.90;;;;;;7284905;19;20204;-80
2024/03/25 05:21:46;;;;;;;40.13;14.70;;;4.70;99.90;;;;;;7309764;19;20186;-81
2024/03/25 05:24:11;;;;;;;46.33;16.60;;;4.80;99.90;;;;;;7287519;19;20193;-81
2024/03/25 05:26:37;;;;;;;47.80;16.87;;;4.90;99.90;;;;;;7287091;19;20220;-80
2024/03/25 05:29:03;;;;;;;43.17;16.50;;;4.80;99.90;;;;;;7283057;19;20200;-80
2024/03/25 05:31:28;;;;;;;46.47;16.00;;;4.80;99.90;;;;;;7286767;19;20301;-81
2024/03/25 05:33:54;;;;;;;44.63;16.97;;;4.80;99.90;;;;;;7287844;19;20192;-81
2024/03/25 05:36:20;;;;;;;52.00;17.17;;;4.70;99.90;;;;;;7285046;19;20190;-80
2024/03/25 05:38:46;;;;;;;51.33;17.17;;;4.70;99.90;;;;;;7306317;19;20200;-81
2024/03/25 05:41:12;;;;;;;52.37;16.33;;;4.70;99.90;;;;;;7288185;19;20199;-80
2024/03/25 05:43:38;;;;;;;43.47;16.87;;;4.70;99.90;;;;;;7286004;19;20216;-80
2024/03/25 05:46:04;;;;;;;50.60;17.40;;;4.70;99.90;;;;;;7285686;19;20197;-79
2024/03/25 05:48:30;;;;;;;52.37;17.47;;;4.70;99.90;;;;;;7285793;19;20210;-80
2024/03/25 05:51:09;;;;;;;55.63;17.70;;;4.70;99.90;;;;;;7286648;19;20683;-79
2024/03/25 05:53:37;;;;;;;46.13;16.73;;;4.80;99.90;;;;;;7287061;19;20260;-77
2024/03/25 05:56:03;;;;;;;52.80;17.47;;;4.80;99.90;;;;;;7283768;19;20520;-81
2024/03/25 05:58:29;;;;;;;53.07;18.77;;;5.00;99.90;;;;;;7286460;19;20186;-79
2024/03/25 06:00:55;;;;;;;50.30;18.10;;;5.10;99.90;;;;;;7287049;19;20191;-78
2024/03/25 06:03:21;;;;;;;55.77;17.43;;;5.20;99.90;;;;;;7286345;19;20193;-79
2024/03/25 06:05:47;;;;;;;53.73;18.00;;;5.30;99.90;;;;;;7299818;19;20595;-77
2024/03/25 06:08:25;;;;;;;47.50;16.17;;;5.40;99.90;;;;;;7304020;19;20720;-79
2024/03/25 06:10:51;;;;;;;51.47;16.87;;;5.50;99.90;;;;;;7264385;19;20190;-79
2024/03/25 06:13:18;;;;;;;44.80;16.73;;;5.60;99.90;;;;;;7297923;19;20280;-79
2024/03/25 06:15:44;;;;;;;46.07;16.53;;;5.70;99.90;;;;;;7305854;19;20586;-80
2024/03/25 06:18:10;;;;;;;45.33;16.50;;;5.70;99.90;;;;;;7286639;19;20177;-80
2024/03/25 06:20:36;;;;;;;40.33;16.63;;;5.80;99.90;;;;;;7285206;19;20189;-81
2024/03/25 06:23:01;;;;;;;42.97;16.17;;;5.80;99.90;;;;;;7285214;19;20584;-82
2024/03/25 06:25:27;;;;;;;41.93;15.73;;;5.90;99.90;;;;;;7282813;19;20187;-80
2024/03/25 06:27:54;;;;;;;36.80;14.93;;;5.80;99.90;;;;;;7285209;19;20216;-80
2024/03/25 06:35:49;;;;;;;55.37;15.43;;;6.10;99.90;;;;;;7262952;19;20973;-81
2024/03/25 06:38:15;;;;;;;41.30;14.90;;;6.40;99.90;;;;;;7305291;19;20208;-82
2024/03/25 06:40:41;;;;;;;34.13;14.43;;;6.60;99.90;;;;;;7284866;19;20585;-82
2024/03/25 06:43:06;;;;;;;37.87;15.10;;;6.60;99.90;;;;;;7282425;19;20560;-83
2024/03/25 06:45:32;;;;;;;35.13;15.07;;;6.60;99.90;;;;;;7285127;19;20956;-82
2024/03/25 06:47:58;;;;;;;32.53;14.33;;;6.70;99.90;;;;;;7285624;19;20199;-82
2024/03/25 06:50:25;;;;;;;36.83;14.80;;;6.80;99.90;;;;;;7284435;19;20176;-83
2024/03/25 06:52:50;;;;;;;38.97;14.83;;;6.80;99.90;;;;;;7282568;19;20184;-82
2024/03/25 06:55:17;;;;;;;34.73;14.73;;;7.00;99.90;;;;;;7306475;19;20185;-82
2024/03/25 06:57:43;;;;;;;44.30;15.53;;;7.10;99.90;;;;;;7282064;19;20182;-81
2024/03/25 07:00:13;;;;;;;36.27;14.47;;;7.00;99.90;;;;;;7281775;19;20206;-81
2024/03/25 07:02:39;;;;;;;41.33;14.70;;;7.10;99.90;;;;;;7282757;19;20210;-81
2024/03/25 07:05:06;;;;;;;36.13;14.93;;;7.30;99.90;;;;;;7283480;19;20254;-80
2024/03/25 07:07:32;;;;;;;44.50;14.80;;;7.50;99.90;;;;;;7283471;19;20198;-79
2024/03/25 07:09:57;;;;;;;42.50;14.03;;;7.70;99.90;;;;;;7274561;19;20216;-79
2024/03/25 07:12:23;;;;;;;36.67;15.03;;;8.10;99.90;;;;;;7281003;19;20198;-80
2024/03/25 07:14:49;;;;;;;36.50;17.93;;;8.30;99.90;;;;;;7276757;19;20202;-80
2024/03/25 07:17:15;;;;;;;30.93;12.73;;;8.60;99.90;;;;;;7298418;19;20190;-80
2024/03/25 07:19:42;;;;;;;30.47;12.17;;;8.60;99.90;;;;;;7277021;19;20198;-80
2024/03/25 07:22:08;;;;;;;35.93;12.87;;;8.70;99.90;;;;;;7281657;19;20189;-80
2024/03/25 07:24:33;;;;;;;30.03;11.87;;;8.90;99.90;;;;;;7283944;19;20192;-80
2024/03/25 07:26:59;;;;;;;36.30;12.83;;;9.10;99.90;;;;;;7281559;19;20203;-79
2024/03/25 07:29:25;;;;;;;32.37;12.47;;;9.30;99.90;;;;;;7281041;19;20283;-80
2024/03/25 07:31:51;;;;;;;29.50;12.40;;;9.50;99.90;;;;;;7274168;19;20206;-80
2024/03/25 07:34:16;;;;;;;32.00;11.90;;;9.60;99.90;;;;;;7301591;19;20281;-81
2024/03/25 07:36:46;;;;;;;32.30;12.80;;;9.70;99.90;;;;;;7280801;19;20187;-80
2024/03/25 07:39:12;;;;;;;34.00;11.33;;;9.90;99.90;;;;;;7291458;19;20197;-80
2024/03/25 07:41:38;;;;;;;25.50;9.87;;;10.00;99.90;;;;;;7294096;19;20185;-81
2024/03/25 07:44:04;;;;;;;30.70;10.43;;;9.90;99.90;;;;;;7293347;19;20191;-80
2024/03/25 07:46:30;;;;;;;30.60;11.93;;;9.80;99.90;;;;;;7278144;19;20192;-80
2024/03/25 07:48:56;;;;;;;24.27;9.57;;;10.20;99.90;;;;;;7276865;19;20239;-80
2024/03/25 07:51:22;;;;;;;22.60;8.83;;;11.20;99.90;;;;;;7280254;19;20606;-80
2024/03/25 07:53:48;;;;;;;30.03;10.80;;;11.60;99.90;;;;;;7304766;19;20193;-80
2024/03/25 07:56:15;;;;;;;29.00;10.10;;;12.40;99.90;;;;;;7309425;19;20177;-80
2024/03/25 07:58:41;;;;;;;21.17;7.43;;;12.80;99.90;;;;;;7289646;19;21676;-80
2024/03/25 08:01:07;;;;;;;20.23;8.10;;;13.40;99.90;;;;;;7296028;19;20679;-81
2024/03/25 08:03:34;;;;;;;26.27;8.63;;;13.70;99.90;;;;;;7293409;19;20203;-82
2024/03/25 08:06:00;;;;;;;20.70;6.67;;;14.00;99.90;;;;;;7288858;19;20653;-82
2024/03/25 08:08:26;;;;;;;24.60;7.87;;;14.60;99.90;;;;;;7290025;19;20256;-82
2024/03/25 08:10:53;;;;;;;19.23;7.40;;;15.90;99.90;;;;;;7294949;19;20176;-81
2024/03/25 08:13:22;;;;;;;19.63;7.37;;;16.30;99.90;;;;;;7293351;19;20636;-82
2024/03/25 08:15:48;;;;;;;25.60;7.70;;;16.40;99.90;;;;;;7303083;19;20537;-81
2024/03/25 08:18:14;;;;;;;22.70;7.27;;;16.30;99.90;;;;;;7318061;19;20186;-82
2024/03/25 08:20:40;;;;;;;20.60;6.93;;;17.10;99.90;;;;;;7296920;19;20630;-82
2024/03/25 08:23:06;;;;;;;19.93;6.67;;;17.10;99.90;;;;;;7295495;19;20561;-82
2024/03/25 08:25:33;;;;;;;22.03;6.73;;;18.10;99.90;;;;;;7294027;19;20184;-82
2024/03/25 08:27:59;;;;;;;16.63;6.47;;;18.50;99.90;;;;;;7293384;19;20545;-82
2024/03/25 08:30:27;;;;;;;19.03;6.47;;;18.20;99.90;;;;;;7296871;19;20279;-82
2024/03/25 08:32:52;;;;;;;20.50;7.03;;;17.50;99.90;;;;;;7295345;19;20245;-83
2024/03/25 08:35:18;;;;;;;18.83;6.33;;;17.00;99.90;;;;;;7303467;19;20301;-82
2024/03/25 08:37:44;;;;;;;20.53;7.40;;;16.10;99.90;;;;;;7317186;19;20188;-81
2024/03/25 08:40:10;;;;;;;21.47;6.70;;;16.10;99.90;;;;;;7295727;19;20707;-82
2024/03/25 08:42:36;;;;;;;19.80;6.37;;;15.90;99.90;;;;;;7294673;19;20353;-81
2024/03/25 08:45:02;;;;;;;19.30;6.90;;;15.60;99.90;;;;;;7293041;19;20194;-81
2024/03/25 08:47:28;;;;;;;20.83;6.90;;;15.80;99.90;;;;;;7296101;19;20270;-81
2024/03/25 08:49:54;;;;;;;18.50;6.30;;;16.70;99.90;;;;;;7295702;19;20199;-81
2024/03/25 08:52:19;;;;;;;15.33;5.70;;;16.70;99.90;;;;;;7295070;19;20202;-82
2024/03/25 08:54:45;;;;;;;15.60;6.10;;;17.50;99.90;;;;;;7316840;19;20208;-82
2024/03/25 08:57:11;;;;;;;13.57;5.87;;;17.60;99.90;;;;;;7295185;19;20207;-82
2024/03/25 08:59:37;;;;;;;15.77;5.80;;;17.60;99.90;;;;;;7294447;19;20197;-81
2024/03/25 09:02:02;;;;;;;15.13;5.53;;;17.80;99.90;;;;;;7291448;19;20277;-81
2024/03/25 09:04:28;;;;;;;15.87;5.97;;;18.00;99.90;;;;;;7286997;19;20650;-81
2024/03/25 09:06:54;;;;;;;20.37;5.70;;;17.60;99.90;;;;;;7287215;19;20181;-81
2024/03/25 09:12:04;;;;;;;16.33;6.07;;;16.60;99.90;;;;;;7285209;19;20273;-81
2024/03/25 09:14:30;;;;;;;19.60;6.63;;;17.50;99.90;;;;;;7286182;19;20185;-81
2024/03/25 09:16:59;;;;;;;14.20;5.27;;;17.70;99.90;;;;;;7288037;19;20185;-80
2024/03/25 09:19:25;;;;;;;15.60;6.87;;;17.70;99.90;;;;;;7285884;19;20220;-80
2024/03/25 09:21:51;;;;;;;18.30;7.47;;;16.60;99.90;;;;;;7285321;19;20216;-81
2024/03/25 09:24:18;;;;;;;17.30;6.57;;;15.90;99.90;;;;;;7310034;19;20187;-81
2024/03/25 09:26:43;;;;;;;21.07;7.40;;;15.00;99.90;;;;;;7287452;19;20255;-80
2024/03/25 09:29:11;;;;;;;20.47;7.27;;;14.50;99.90;;;;;;7284375;19;20303;-80
2024/03/25 09:31:37;;;;;;;16.57;7.33;;;13.90;99.90;;;;;;7285011;19;21993;-80
2024/03/25 09:34:03;;;;;;;21.03;6.57;;;13.40;99.90;;;;;;7288148;19;20191;-81
2024/03/25 09:36:29;;;;;;;16.77;6.40;;;13.30;99.90;;;;;;7288566;19;20191;-80
2024/03/25 09:38:55;;;;;;;20.93;7.60;;;13.10;99.90;;;;;;7285405;19;20629;-80
2024/03/25 09:41:22;;;;;;;15.97;6.83;;;12.80;99.90;;;;;;7284132;19;20179;-80
2024/03/25 09:43:55;;;;;;;20.33;7.63;;;12.50;99.90;;;;;;7306643;19;20861;-79
2024/03/25 09:46:23;;;;;;;20.57;6.30;;;12.70;99.90;;;;;;7285466;19;20272;-80
2024/03/25 09:48:52;;;;;;;17.37;6.63;;;12.70;99.90;;;;;;7287051;19;20591;-81
2024/03/25 09:51:19;;;;;;;19.73;7.10;;;12.80;99.90;;;;;;7295979;19;20187;-81
2024/03/25 09:53:45;;;;;;;18.40;7.10;;;13.20;99.90;;;;;;7306773;19;20189;-81
2024/03/25 09:56:15;;;;;;;20.17;6.77;;;13.40;99.90;;;;;;7284090;19;20673;-81
2024/03/25 09:58:43;;;;;;;17.53;5.70;;;13.70;99.90;;;;;;7282895;19;20287;-81
2024/03/25 10:01:09;;;;;;;13.57;5.37;;;14.90;99.90;;;;;;7286095;19;20940;-81
2024/03/25 10:03:35;;;;;;;14.67;5.57;;;17.40;99.90;;;;;;7285096;19;20549;-81
2024/03/25 10:06:01;;;;;;;16.03;5.67;;;18.40;99.90;;;;;;7286268;19;20203;-81
2024/03/25 10:08:30;;;;;;;15.77;5.53;;;18.80;99.90;;;;;;7284739;19;20185;-81
2024/03/25 10:10:56;;;;;;;14.57;5.43;;;19.50;99.90;;;;;;7285024;19;20189;-82
2024/03/25 10:13:22;;;;;;;11.90;5.10;;;19.70;99.90;;;;;;7287058;19;20232;-81
2024/03/25 10:15:49;;;;;;;14.73;5.00;;;20.10;99.90;;;;;;7296092;19;20581;-81
2024/03/25 10:18:14;;;;;;;12.27;5.27;;;20.00;99.90;;;;;;7305839;19;20615;-81
2024/03/25 10:20:50;;;;;;;12.87;5.40;;;20.80;99.90;;;;;;7286002;19;20251;-81
2024/03/25 10:23:20;;;;;;;14.20;5.23;;;20.40;99.90;;;;;;7287462;19;20903;-81
2024/03/25 10:25:48;;;;;;;12.33;4.80;;;20.20;99.90;;;;;;7284223;19;20201;-81
2024/03/25 10:28:14;;;;;;;11.47;4.50;;;20.20;99.90;;;;;;7285268;19;20225;-81
2024/03/25 10:30:41;;;;;;;9.57;3.67;;;20.10;99.90;;;;;;7284698;19;20204;-80
2024/03/25 10:33:07;;;;;;;12.33;3.40;;;20.10;99.90;;;;;;7286165;19;20274;-81
2024/03/25 10:35:37;;;;;;;13.70;4.23;;;19.30;99.90;;;;;;7284480;19;20190;-79
2024/03/25 10:38:05;;;;;;;10.13;3.83;;;18.30;99.90;;;;;;7284270;19;20194;-80
2024/03/25 10:40:33;;;;;;;11.17;3.73;;;17.50;99.90;;;;;;7284401;19;20546;-80
2024/03/25 10:43:11;;;;;;;10.97;3.60;;;17.90;99.90;;;;;;7288089;19;20264;-81
2024/03/25 10:45:46;;;;;;;10.53;3.10;;;17.80;99.90;;;;;;7286666;19;20227;-80
2024/03/25 10:48:19;;;;;;;8.37;2.60;;;18.20;99.90;;;;;;7288573;19;20192;-79
2024/03/25 10:50:46;;;;;;;11.23;2.90;;;18.40;99.90;;;;;;7287620;19;20210;-80
2024/03/25 10:53:13;;;;;;;10.37;3.07;;;18.90;99.50;;;;;;7282317;19;20528;-80
2024/03/25 10:55:40;;;;;;;10.00;2.93;;;18.70;99.90;;;;;;7284983;19;20978;-81
2024/03/25 10:58:07;;;;;;;11.00;2.90;;;19.90;99.90;;;;;;7289233;19;20678;-81
2024/03/25 11:00:35;;;;;;;10.70;3.30;;;20.20;96.20;;;;;;7286752;19;20266;-81
2024/03/25 11:03:01;;;;;;;11.93;3.23;;;19.90;96.50;;;;;;7285273;19;20202;-80
2024/03/25 11:05:27;;;;;;;10.57;2.87;;;18.90;96.90;;;;;;7283673;19;20653;-80
2024/03/25 11:07:53;;;;;;;7.63;2.67;;;18.00;97.90;;;;;;7282456;19;20275;-80
2024/03/25 11:10:19;;;;;;;10.33;3.90;;;18.30;96.50;;;;;;7292011;19;20192;-80
2024/03/25 11:12:45;;;;;;;8.83;3.03;;;17.30;96.20;;;;;;7302266;19;20189;-81
2024/03/25 11:15:11;;;;;;;11.20;3.50;;;17.10;99.20;;;;;;7282365;19;20201;-80
2024/03/25 11:17:48;;;;;;;10.37;3.53;;;18.10;98.40;;;;;;7283434;19;20543;-80
2024/03/25 11:20:16;;;;;;;10.40;3.50;;;17.40;97.80;;;;;;7283456;19;20212;-80
2024/03/25 11:22:52;;;;;;;9.83;3.40;;;18.00;98.70;;;;;;7281239;19;20185;-80
2024/03/25 11:25:20;;;;;;;8.67;3.00;;;18.70;95.60;;;;;;7280325;19;20194;-79
2024/03/25 11:27:47;;;;;;;8.13;3.00;;;17.60;94.60;;;;;;7303308;19;20216;-80
2024/03/25 11:30:16;;;;;;;7.53;2.50;;;17.60;95.30;;;;;;7286618;19;20215;-80
2024/03/25 11:32:55;;;;;;;8.10;2.30;;;18.50;93.20;;;;;;7284601;19;20284;-79
2024/03/25 11:35:21;;;;;;;7.57;2.50;;;17.70;93.60;;;;;;7263249;19;20203;-78
2024/03/25 11:37:50;;;;;;;7.60;2.60;;;17.90;94.50;;;;;;7297314;19;20190;-79
2024/03/25 11:40:15;;;;;;;5.93;2.20;;;18.50;93.90;;;;;;7303782;19;20188;-79
2024/03/25 11:42:45;;;;;;;7.23;2.60;;;18.70;91.70;;;;;;7281142;19;20272;-79
2024/03/25 11:45:21;;;;;;;9.10;2.60;;;17.90;91.70;;;;;;7282974;19;20294;-79
2024/03/25 11:47:48;;;;;;;6.77;2.40;;;17.60;92.30;;;;;;7282937;19;20195;-79
2024/03/25 11:50:19;;;;;;;7.90;3.03;;;17.40;92.20;;;;;;7281422;19;20192;-78
2024/03/25 11:52:46;;;;;;;6.93;2.30;;;17.00;93.90;;;;;;7283526;19;20195;-79
2024/03/25 11:55:19;;;;;;;6.97;2.37;;;17.20;93.90;;;;;;7286315;19;20262;-79
2024/03/25 11:57:55;;;;;;;9.10;2.60;;;16.60;92.70;;;;;;7278740;19;20197;-79
2024/03/25 12:00:21;;;;;;;8.50;2.50;;;16.20;92.30;;;;;;7281569;19;20191;-79
2024/03/25 12:02:48;;;;;;;7.20;2.47;;;15.80;93.30;;;;;;7297093;19;20210;-79
2024/03/25 12:05:16;;;;;;;10.47;2.87;;;15.90;93.40;;;;;;7304837;19;20869;-79
2024/03/25 12:07:42;;;;;;;8.07;2.57;;;16.60;93.40;;;;;;7282164;19;20204;-79
2024/03/25 12:12:53;;;;;;;5.83;2.00;;;16.00;93.40;;;;;;7179840;19;2005140;-79
2024/03/25 12:15:22;;;;;;;8.70;2.40;;;15.80;93.60;;;;;;7281970;19;20195;-79
2024/03/25 12:17:51;;;;;;;8.03;2.17;;;15.70;94.00;;;;;;7298026;19;20213;-79
2024/03/25 12:20:17;;;;;;;7.80;2.30;;;15.20;94.80;;;;;;7302916;19;20242;-80
2024/03/25 12:22:44;;;;;;;4.23;1.83;;;15.20;95.80;;;;;;7283572;19;20713;-79
2024/03/25 12:25:10;;;;;;;7.13;1.87;;;15.40;94.80;;;;;;7282331;19;20187;-79
2024/03/25 12:27:37;;;;;;;9.20;2.00;;;15.80;95.10;;;;;;7280716;19;20206;-79
2024/03/25 12:30:08;;;;;;;5.00;1.57;;;16.20;93.40;;;;;;7280418;19;20191;-79
2024/03/25 12:32:38;;;;;;;3.90;1.53;;;16.30;93.70;;;;;;7282218;19;20191;-79
2024/03/25 12:35:08;;;;;;;5.80;1.67;;;16.50;93.10;;;;;;7280139;19;20276;-79
2024/03/25 12:37:34;;;;;;;8.30;2.03;;;17.40;91.60;;;;;;7279563;19;20192;-80
2024/03/25 12:40:00;;;;;;;5.13;1.90;;;17.80;91.20;;;;;;7289456;19;20203;-79
2024/03/25 12:42:29;;;;;;;9.13;1.90;;;18.30;89.80;;;;;;7288933;19;20214;-79
2024/03/25 12:44:55;;;;;;;7.87;1.80;;;17.70;89.40;;;;;;7288136;19;20201;-79
2024/03/25 12:47:21;;;;;;;7.13;1.40;;;17.40;89.40;;;;;;7285923;19;20655;-79